Aeroporto :
LOGIN :

Iscrizione | Disclaimer

   EN    FR    IT 

 










Sommario :    VFR   VFR Marginale   IFR   IFR Intensivo   IFR Molto Intensivo
Visibilità : 
Base nubi : 
>= 8 km
>= 3000ft
5 / 8 km
1000 / 3000 ft
1500m / 5 km
500 / 1000 ft
800 / 1500m
200 / 500 ft
< 800m
< 200 ft
Simboli :   Temporali  Nebbia  Neve Forte  Precipitazioni Forti  Vento > 20 kt
SIGMETs :   Varie  Temporali  Ghiacco  Turbolenza  Onda orograficha  Ceneri Vulcaniche







- Altitudine del aeroporto : 56 ft
- Codice IATA : ILY
- Carte del aeroporto


EGPI - Islay

ULTIMO METAR :
  • 210220Z AUTO 36007KT 330V030 9999 NCD 05/02 Q1013

METARs OBSOLETI :
  • 210150Z AUTO 03009KT 350V080 9999 NCD 05/02 Q1014
  • 210120Z AUTO 03010KT 350V080 9999 NCD 05/02 Q1014
  • 210050Z AUTO 04012KT 360V090 9999 NCD 06/02 Q1015
  • 210020Z AUTO 04012KT 360V080 9999 NCD 06/02 Q1015
  • 202350Z AUTO 06011KT 020V090 9999 FEW033/// 06/02 Q1015
  • 202320Z AUTO 06013KT 010V120 9999 FEW032/// 06/01 Q1016

TAF TAF EGPI
Valido dal 21 a 03 ore il 21 a 12 ore UTC


210158Z 2103/2112 05017KT 9999 SCT025
PROB40
TEMPO 2103/2112 09020G30KT 7000 SHRA
Nessun NOTAM noto per questo aeroporto.
1 SIGMET conosciuto per la FIR Scottish (EGPX) :
 
Forte onda orograficha
EGPX SIGMET 01 VALID 210100/210500 EGRR
EGPX SCOTTISH FIR SEV MTW FCST WI N5500 W00525 - N5712 W00606 - N5834 W00536 - N5832 W00412 - N5656 W00353 - N5500 W00218 - N5500 W00525 FL030/120 STNR WKN=



MetMap, La meteo Aeronautica in un colpo d'occhio ! - Copyright ORBIFLY Dicembre 2007 - Disclaimer

ORBIFLY MET'MAP TEAM :

Programmazione e sviluppo : Alexandra Zaïnal
Concezione e sviluppo : Baudouin d'Aumeries
Co-Programmazione e sviluppo : Marc-Olivier Méhu
Supporto tecnico e logistico : Manuel Goepfert
Aiuto per la traduzione : Arnaldo La Scala

Contatto : metmap@orbifly.com




FONTI E CREDITI :

   NOAA